sensor_id;sensor_type;location;lat;lon;timestamp;P1;durP1;ratioP1;P2;durP2;ratioP2
28762;SDS011;15918;51.270;6.522;2023-05-16T00:01:45;2.00;;;1.80;;
28762;SDS011;15918;51.270;6.522;2023-05-16T00:04:10;1.90;;;1.63;;
28762;SDS011;15918;51.270;6.522;2023-05-16T00:06:36;3.45;;;1.60;;
28762;SDS011;15918;51.270;6.522;2023-05-16T00:09:01;2.58;;;1.45;;
28762;SDS011;15918;51.270;6.522;2023-05-16T00:11:27;4.88;;;1.80;;
28762;SDS011;15918;51.270;6.522;2023-05-16T00:13:53;3.20;;;1.63;;
28762;SDS011;15918;51.270;6.522;2023-05-16T00:16:18;3.90;;;1.52;;
28762;SDS011;15918;51.270;6.522;2023-05-16T00:18:45;4.72;;;1.83;;
28762;SDS011;15918;51.270;6.522;2023-05-16T00:21:12;3.97;;;1.92;;
28762;SDS011;15918;51.270;6.522;2023-05-16T00:23:37;4.10;;;1.85;;
28762;SDS011;15918;51.270;6.522;2023-05-16T00:26:03;11.60;;;1.83;;
28762;SDS011;15918;51.270;6.522;2023-05-16T00:28:29;2.92;;;1.48;;
28762;SDS011;15918;51.270;6.522;2023-05-16T00:30:55;7.03;;;1.90;;
28762;SDS011;15918;51.270;6.522;2023-05-16T00:33:20;4.82;;;1.70;;
28762;SDS011;15918;51.270;6.522;2023-05-16T00:35:46;6.45;;;2.03;;
28762;SDS011;15918;51.270;6.522;2023-05-16T00:38:12;3.42;;;1.67;;
28762;SDS011;15918;51.270;6.522;2023-05-16T00:40:37;5.78;;;1.52;;
28762;SDS011;15918;51.270;6.522;2023-05-16T00:43:03;6.40;;;2.17;;
28762;SDS011;15918;51.270;6.522;2023-05-16T00:45:29;5.70;;;2.03;;
28762;SDS011;15918;51.270;6.522;2023-05-16T00:47:54;3.85;;;1.85;;
28762;SDS011;15918;51.270;6.522;2023-05-16T00:50:20;7.35;;;2.92;;
28762;SDS011;15918;51.270;6.522;2023-05-16T00:52:46;7.00;;;2.30;;
28762;SDS011;15918;51.270;6.522;2023-05-16T00:55:12;7.95;;;2.42;;
28762;SDS011;15918;51.270;6.522;2023-05-16T00:57:38;4.57;;;2.08;;
28762;SDS011;15918;51.270;6.522;2023-05-16T01:00:04;6.60;;;2.38;;
28762;SDS011;15918;51.270;6.522;2023-05-16T01:02:34;8.82;;;3.20;;
28762;SDS011;15918;51.270;6.522;2023-05-16T01:05:01;9.35;;;2.42;;
28762;SDS011;15918;51.270;6.522;2023-05-16T01:07:29;10.15;;;2.60;;
28762;SDS011;15918;51.270;6.522;2023-05-16T01:09:55;9.55;;;2.72;;
28762;SDS011;15918;51.270;6.522;2023-05-16T01:12:36;8.10;;;2.92;;
28762;SDS011;15918;51.270;6.522;2023-05-16T01:20:37;9.30;;;2.90;;
28762;SDS011;15918;51.270;6.522;2023-05-16T01:28:52;7.88;;;3.35;;
28762;SDS011;15918;51.270;6.522;2023-05-16T01:31:22;13.20;;;3.00;;
28762;SDS011;15918;51.270;6.522;2023-05-16T01:33:48;10.23;;;2.83;;
28762;SDS011;15918;51.270;6.522;2023-05-16T01:36:23;11.50;;;2.70;;
28762;SDS011;15918;51.270;6.522;2023-05-16T01:41:54;11.27;;;3.20;;
28762;SDS011;15918;51.270;6.522;2023-05-16T01:44:55;11.50;;;3.38;;
28762;SDS011;15918;51.270;6.522;2023-05-16T01:47:28;11.10;;;2.80;;
28762;SDS011;15918;51.270;6.522;2023-05-16T01:55:13;10.23;;;2.92;;
28762;SDS011;15918;51.270;6.522;2023-05-16T01:57:42;12.27;;;3.38;;
28762;SDS011;15918;51.270;6.522;2023-05-16T02:00:10;12.20;;;3.50;;
28762;SDS011;15918;51.270;6.522;2023-05-16T02:02:37;14.23;;;3.80;;
28762;SDS011;15918;51.270;6.522;2023-05-16T02:05:02;13.57;;;3.92;;
28762;SDS011;15918;51.270;6.522;2023-05-16T02:07:28;13.07;;;3.33;;
28762;SDS011;15918;51.270;6.522;2023-05-16T02:09:54;9.68;;;3.28;;
28762;SDS011;15918;51.270;6.522;2023-05-16T02:12:19;13.75;;;3.55;;
28762;SDS011;15918;51.270;6.522;2023-05-16T02:14:45;13.00;;;3.35;;
28762;SDS011;15918;51.270;6.522;2023-05-16T02:17:10;12.23;;;3.55;;
28762;SDS011;15918;51.270;6.522;2023-05-16T02:19:36;15.05;;;3.85;;
28762;SDS011;15918;51.270;6.522;2023-05-16T02:22:01;11.55;;;3.08;;
28762;SDS011;15918;51.270;6.522;2023-05-16T02:24:27;9.27;;;3.17;;
28762;SDS011;15918;51.270;6.522;2023-05-16T02:26:53;11.18;;;3.70;;
28762;SDS011;15918;51.270;6.522;2023-05-16T02:29:18;11.05;;;3.72;;
28762;SDS011;15918;51.270;6.522;2023-05-16T02:31:44;11.35;;;3.55;;
28762;SDS011;15918;51.270;6.522;2023-05-16T02:34:10;14.48;;;4.00;;
28762;SDS011;15918;51.270;6.522;2023-05-16T02:36:35;11.98;;;3.75;;
28762;SDS011;15918;51.270;6.522;2023-05-16T02:39:01;12.43;;;3.97;;
28762;SDS011;15918;51.270;6.522;2023-05-16T02:41:28;14.75;;;4.10;;
28762;SDS011;15918;51.270;6.522;2023-05-16T02:43:54;17.10;;;3.67;;
28762;SDS011;15918;51.270;6.522;2023-05-16T02:46:27;20.40;;;4.10;;
28762;SDS011;15918;51.270;6.522;2023-05-16T02:48:57;11.40;;;4.10;;
28762;SDS011;15918;51.270;6.522;2023-05-16T02:51:24;14.13;;;3.80;;
28762;SDS011;15918;51.270;6.522;2023-05-16T02:53:51;11.57;;;3.30;;
28762;SDS011;15918;51.270;6.522;2023-05-16T02:56:18;13.80;;;3.92;;
28762;SDS011;15918;51.270;6.522;2023-05-16T02:58:46;11.90;;;3.78;;
28762;SDS011;15918;51.270;6.522;2023-05-16T03:01:13;14.77;;;4.38;;
28762;SDS011;15918;51.270;6.522;2023-05-16T03:03:39;14.13;;;3.92;;
28762;SDS011;15918;51.270;6.522;2023-05-16T03:06:05;12.82;;;3.88;;
28762;SDS011;15918;51.270;6.522;2023-05-16T03:08:31;10.23;;;2.78;;
28762;SDS011;15918;51.270;6.522;2023-05-16T03:10:57;14.68;;;4.00;;
28762;SDS011;15918;51.270;6.522;2023-05-16T03:13:22;14.57;;;3.92;;
28762;SDS011;15918;51.270;6.522;2023-05-16T03:15:48;12.07;;;3.88;;
28762;SDS011;15918;51.270;6.522;2023-05-16T03:18:14;17.67;;;4.45;;
28762;SDS011;15918;51.270;6.522;2023-05-16T03:20:39;14.68;;;3.35;;
28762;SDS011;15918;51.270;6.522;2023-05-16T03:23:05;12.82;;;4.15;;
28762;SDS011;15918;51.270;6.522;2023-05-16T03:25:32;15.30;;;3.47;;
28762;SDS011;15918;51.270;6.522;2023-05-16T03:27:58;13.32;;;3.45;;
28762;SDS011;15918;51.270;6.522;2023-05-16T03:30:24;11.65;;;3.10;;
28762;SDS011;15918;51.270;6.522;2023-05-16T03:32:50;16.52;;;3.85;;
28762;SDS011;15918;51.270;6.522;2023-05-16T03:35:16;15.13;;;3.78;;
28762;SDS011;15918;51.270;6.522;2023-05-16T03:37:42;11.23;;;3.72;;
28762;SDS011;15918;51.270;6.522;2023-05-16T03:40:08;16.05;;;4.07;;
28762;SDS011;15918;51.270;6.522;2023-05-16T03:42:35;12.18;;;3.75;;
28762;SDS011;15918;51.270;6.522;2023-05-16T03:45:00;10.55;;;2.97;;
28762;SDS011;15918;51.270;6.522;2023-05-16T03:47:27;15.70;;;4.15;;
28762;SDS011;15918;51.270;6.522;2023-05-16T03:49:55;8.15;;;2.72;;
28762;SDS011;15918;51.270;6.522;2023-05-16T03:52:20;14.73;;;2.90;;
28762;SDS011;15918;51.270;6.522;2023-05-16T03:54:46;9.07;;;3.42;;
28762;SDS011;15918;51.270;6.522;2023-05-16T03:57:12;13.05;;;3.72;;
28762;SDS011;15918;51.270;6.522;2023-05-16T03:59:37;10.68;;;3.47;;
28762;SDS011;15918;51.270;6.522;2023-05-16T04:02:03;12.65;;;3.10;;
28762;SDS011;15918;51.270;6.522;2023-05-16T04:04:30;16.23;;;3.50;;
28762;SDS011;15918;51.270;6.522;2023-05-16T04:06:56;14.10;;;3.78;;
28762;SDS011;15918;51.270;6.522;2023-05-16T04:09:21;14.57;;;3.83;;
28762;SDS011;15918;51.270;6.522;2023-05-16T04:11:47;12.65;;;3.40;;
28762;SDS011;15918;51.270;6.522;2023-05-16T04:14:13;14.10;;;3.65;;
28762;SDS011;15918;51.270;6.522;2023-05-16T04:16:39;8.23;;;3.08;;
28762;SDS011;15918;51.270;6.522;2023-05-16T04:19:05;11.52;;;2.92;;
28762;SDS011;15918;51.270;6.522;2023-05-16T04:21:31;13.70;;;3.85;;
28762;SDS011;15918;51.270;6.522;2023-05-16T04:23:57;14.63;;;4.00;;
28762;SDS011;15918;51.270;6.522;2023-05-16T04:26:23;11.18;;;3.05;;
28762;SDS011;15918;51.270;6.522;2023-05-16T04:28:48;11.23;;;3.40;;
28762;SDS011;15918;51.270;6.522;2023-05-16T04:31:14;8.60;;;2.30;;
28762;SDS011;15918;51.270;6.522;2023-05-16T04:33:40;11.90;;;3.53;;
28762;SDS011;15918;51.270;6.522;2023-05-16T04:36:06;11.65;;;2.92;;
28762;SDS011;15918;51.270;6.522;2023-05-16T04:38:32;10.20;;;3.15;;
28762;SDS011;15918;51.270;6.522;2023-05-16T04:40:58;10.27;;;2.83;;
28762;SDS011;15918;51.270;6.522;2023-05-16T04:43:24;8.93;;;2.92;;
28762;SDS011;15918;51.270;6.522;2023-05-16T04:45:50;15.13;;;3.08;;
28762;SDS011;15918;51.270;6.522;2023-05-16T04:48:17;11.85;;;3.35;;
28762;SDS011;15918;51.270;6.522;2023-05-16T04:50:43;10.73;;;3.20;;
28762;SDS011;15918;51.270;6.522;2023-05-16T04:53:09;18.35;;;3.85;;
28762;SDS011;15918;51.270;6.522;2023-05-16T04:55:35;12.60;;;3.25;;
28762;SDS011;15918;51.270;6.522;2023-05-16T04:58:00;9.90;;;2.92;;
28762;SDS011;15918;51.270;6.522;2023-05-16T05:00:26;14.25;;;4.00;;
28762;SDS011;15918;51.270;6.522;2023-05-16T05:02:52;11.43;;;2.92;;
28762;SDS011;15918;51.270;6.522;2023-05-16T05:05:18;10.18;;;3.08;;
28762;SDS011;15918;51.270;6.522;2023-05-16T05:07:43;15.27;;;3.83;;
28762;SDS011;15918;51.270;6.522;2023-05-16T05:10:09;12.32;;;3.92;;
28762;SDS011;15918;51.270;6.522;2023-05-16T05:12:35;14.07;;;3.53;;
28762;SDS011;15918;51.270;6.522;2023-05-16T05:15:01;14.45;;;4.75;;
28762;SDS011;15918;51.270;6.522;2023-05-16T05:17:27;14.38;;;3.30;;
28762;SDS011;15918;51.270;6.522;2023-05-16T05:19:53;11.95;;;3.30;;
28762;SDS011;15918;51.270;6.522;2023-05-16T05:22:19;17.13;;;3.58;;
28762;SDS011;15918;51.270;6.522;2023-05-16T05:24:45;13.70;;;3.13;;
28762;SDS011;15918;51.270;6.522;2023-05-16T05:27:10;17.05;;;3.38;;
28762;SDS011;15918;51.270;6.522;2023-05-16T05:29:36;17.42;;;3.60;;
28762;SDS011;15918;51.270;6.522;2023-05-16T05:32:02;11.75;;;2.88;;
28762;SDS011;15918;51.270;6.522;2023-05-16T05:34:27;9.63;;;2.97;;
28762;SDS011;15918;51.270;6.522;2023-05-16T05:36:53;12.43;;;4.03;;
28762;SDS011;15918;51.270;6.522;2023-05-16T05:39:18;12.13;;;3.42;;
28762;SDS011;15918;51.270;6.522;2023-05-16T05:41:44;11.82;;;3.10;;
28762;SDS011;15918;51.270;6.522;2023-05-16T05:44:10;14.40;;;3.75;;
28762;SDS011;15918;51.270;6.522;2023-05-16T05:46:35;11.38;;;3.60;;
28762;SDS011;15918;51.270;6.522;2023-05-16T05:49:01;11.00;;;3.22;;
28762;SDS011;15918;51.270;6.522;2023-05-16T05:51:27;9.52;;;3.13;;
28762;SDS011;15918;51.270;6.522;2023-05-16T05:53:53;10.15;;;3.58;;
28762;SDS011;15918;51.270;6.522;2023-05-16T05:56:19;14.88;;;3.88;;
28762;SDS011;15918;51.270;6.522;2023-05-16T05:58:45;11.25;;;3.45;;
28762;SDS011;15918;51.270;6.522;2023-05-16T06:01:11;14.10;;;3.50;;
28762;SDS011;15918;51.270;6.522;2023-05-16T06:03:36;11.82;;;3.95;;
28762;SDS011;15918;51.270;6.522;2023-05-16T06:06:02;9.43;;;3.28;;
28762;SDS011;15918;51.270;6.522;2023-05-16T06:08:28;13.93;;;3.22;;
28762;SDS011;15918;51.270;6.522;2023-05-16T06:10:54;15.88;;;3.28;;
28762;SDS011;15918;51.270;6.522;2023-05-16T06:13:20;16.90;;;3.80;;
28762;SDS011;15918;51.270;6.522;2023-05-16T06:15:52;11.85;;;2.83;;
28762;SDS011;15918;51.270;6.522;2023-05-16T06:18:18;17.63;;;3.88;;
28762;SDS011;15918;51.270;6.522;2023-05-16T06:20:44;12.95;;;2.90;;
28762;SDS011;15918;51.270;6.522;2023-05-16T06:23:10;14.82;;;3.80;;
28762;SDS011;15918;51.270;6.522;2023-05-16T06:25:36;14.35;;;3.40;;
28762;SDS011;15918;51.270;6.522;2023-05-16T06:28:02;11.25;;;3.22;;
28762;SDS011;15918;51.270;6.522;2023-05-16T06:30:27;11.60;;;3.13;;
28762;SDS011;15918;51.270;6.522;2023-05-16T06:32:53;17.38;;;3.17;;
28762;SDS011;15918;51.270;6.522;2023-05-16T06:35:19;14.98;;;3.45;;
28762;SDS011;15918;51.270;6.522;2023-05-16T06:37:44;13.95;;;3.83;;
28762;SDS011;15918;51.270;6.522;2023-05-16T06:40:10;15.23;;;4.00;;
28762;SDS011;15918;51.270;6.522;2023-05-16T06:42:36;11.02;;;3.13;;
28762;SDS011;15918;51.270;6.522;2023-05-16T06:45:02;10.88;;;2.55;;
28762;SDS011;15918;51.270;6.522;2023-05-16T06:47:28;12.70;;;3.40;;
28762;SDS011;15918;51.270;6.522;2023-05-16T06:49:53;11.57;;;2.97;;
28762;SDS011;15918;51.270;6.522;2023-05-16T06:52:19;12.32;;;3.33;;
28762;SDS011;15918;51.270;6.522;2023-05-16T06:54:45;10.48;;;2.70;;
28762;SDS011;15918;51.270;6.522;2023-05-16T06:57:11;10.48;;;3.28;;
28762;SDS011;15918;51.270;6.522;2023-05-16T06:59:37;18.27;;;3.22;;
28762;SDS011;15918;51.270;6.522;2023-05-16T07:02:03;12.43;;;2.78;;
28762;SDS011;15918;51.270;6.522;2023-05-16T07:04:29;12.23;;;3.10;;
28762;SDS011;15918;51.270;6.522;2023-05-16T07:06:55;12.55;;;3.10;;
28762;SDS011;15918;51.270;6.522;2023-05-16T07:09:20;12.27;;;3.00;;
28762;SDS011;15918;51.270;6.522;2023-05-16T07:11:46;10.63;;;2.83;;
28762;SDS011;15918;51.270;6.522;2023-05-16T07:14:11;13.80;;;3.20;;
28762;SDS011;15918;51.270;6.522;2023-05-16T07:16:37;10.95;;;3.05;;
28762;SDS011;15918;51.270;6.522;2023-05-16T07:19:03;12.20;;;3.00;;
28762;SDS011;15918;51.270;6.522;2023-05-16T07:21:28;9.57;;;2.85;;
28762;SDS011;15918;51.270;6.522;2023-05-16T07:23:54;11.15;;;2.97;;
28762;SDS011;15918;51.270;6.522;2023-05-16T07:26:19;8.63;;;2.28;;
28762;SDS011;15918;51.270;6.522;2023-05-16T07:28:47;10.18;;;2.85;;
28762;SDS011;15918;51.270;6.522;2023-05-16T07:31:14;15.82;;;3.05;;
28762;SDS011;15918;51.270;6.522;2023-05-16T07:33:41;15.07;;;2.67;;
28762;SDS011;15918;51.270;6.522;2023-05-16T07:36:06;10.68;;;2.83;;
28762;SDS011;15918;51.270;6.522;2023-05-16T07:38:32;11.73;;;2.83;;
28762;SDS011;15918;51.270;6.522;2023-05-16T07:40:58;8.95;;;2.35;;
28762;SDS011;15918;51.270;6.522;2023-05-16T07:43:24;10.00;;;2.53;;
28762;SDS011;15918;51.270;6.522;2023-05-16T07:45:50;14.85;;;3.22;;
28762;SDS011;15918;51.270;6.522;2023-05-16T07:48:16;8.48;;;2.90;;
28762;SDS011;15918;51.270;6.522;2023-05-16T07:50:42;8.98;;;2.92;;
28762;SDS011;15918;51.270;6.522;2023-05-16T07:53:08;9.48;;;2.88;;
28762;SDS011;15918;51.270;6.522;2023-05-16T07:55:34;11.73;;;2.67;;
28762;SDS011;15918;51.270;6.522;2023-05-16T07:57:59;15.18;;;2.65;;
28762;SDS011;15918;51.270;6.522;2023-05-16T08:00:25;9.70;;;3.10;;
28762;SDS011;15918;51.270;6.522;2023-05-16T08:02:50;10.93;;;2.83;;
28762;SDS011;15918;51.270;6.522;2023-05-16T08:05:16;8.88;;;2.25;;
28762;SDS011;15918;51.270;6.522;2023-05-16T08:07:42;7.90;;;2.05;;
28762;SDS011;15918;51.270;6.522;2023-05-16T08:10:07;9.98;;;2.20;;
28762;SDS011;15918;51.270;6.522;2023-05-16T08:12:33;15.05;;;2.80;;
28762;SDS011;15918;51.270;6.522;2023-05-16T08:14:59;11.15;;;2.38;;
28762;SDS011;15918;51.270;6.522;2023-05-16T08:17:25;8.18;;;2.60;;
28762;SDS011;15918;51.270;6.522;2023-05-16T08:19:50;11.02;;;2.58;;
28762;SDS011;15918;51.270;6.522;2023-05-16T08:22:16;7.68;;;2.38;;
28762;SDS011;15918;51.270;6.522;2023-05-16T08:24:41;9.15;;;2.63;;
28762;SDS011;15918;51.270;6.522;2023-05-16T08:27:07;6.70;;;1.80;;
28762;SDS011;15918;51.270;6.522;2023-05-16T08:29:33;9.25;;;2.47;;
28762;SDS011;15918;51.270;6.522;2023-05-16T08:31:58;9.30;;;2.47;;
28762;SDS011;15918;51.270;6.522;2023-05-16T08:34:24;10.85;;;2.65;;
28762;SDS011;15918;51.270;6.522;2023-05-16T08:36:50;7.20;;;1.95;;
28762;SDS011;15918;51.270;6.522;2023-05-16T08:39:16;7.85;;;1.88;;
28762;SDS011;15918;51.270;6.522;2023-05-16T08:41:41;10.38;;;2.47;;
28762;SDS011;15918;51.270;6.522;2023-05-16T08:44:07;5.40;;;2.17;;
28762;SDS011;15918;51.270;6.522;2023-05-16T08:46:34;9.80;;;2.83;;
28762;SDS011;15918;51.270;6.522;2023-05-16T08:49:01;12.90;;;2.60;;
28762;SDS011;15918;51.270;6.522;2023-05-16T08:51:32;9.23;;;2.40;;
28762;SDS011;15918;51.270;6.522;2023-05-16T08:54:02;13.18;;;2.53;;
28762;SDS011;15918;51.270;6.522;2023-05-16T08:56:28;11.63;;;2.65;;
28762;SDS011;15918;51.270;6.522;2023-05-16T08:58:54;8.65;;;2.17;;
28762;SDS011;15918;51.270;6.522;2023-05-16T09:01:22;12.75;;;2.80;;
28762;SDS011;15918;51.270;6.522;2023-05-16T09:03:48;8.85;;;3.35;;
28762;SDS011;15918;51.270;6.522;2023-05-16T09:06:15;10.45;;;2.33;;
28762;SDS011;15918;51.270;6.522;2023-05-16T09:08:41;11.43;;;3.28;;
28762;SDS011;15918;51.270;6.522;2023-05-16T09:11:07;13.48;;;2.50;;
28762;SDS011;15918;51.270;6.522;2023-05-16T09:13:33;10.25;;;2.70;;
28762;SDS011;15918;51.270;6.522;2023-05-16T09:16:12;14.40;;;2.83;;
28762;SDS011;15918;51.270;6.522;2023-05-16T09:18:43;14.27;;;2.75;;
28762;SDS011;15918;51.270;6.522;2023-05-16T09:21:25;14.75;;;3.30;;
28762;SDS011;15918;51.270;6.522;2023-05-16T09:23:52;9.80;;;2.35;;
28762;SDS011;15918;51.270;6.522;2023-05-16T09:26:18;7.45;;;2.20;;
28762;SDS011;15918;51.270;6.522;2023-05-16T09:28:45;9.32;;;2.55;;
28762;SDS011;15918;51.270;6.522;2023-05-16T09:31:18;9.88;;;2.47;;
28762;SDS011;15918;51.270;6.522;2023-05-16T09:33:45;9.43;;;2.50;;
28762;SDS011;15918;51.270;6.522;2023-05-16T09:36:11;11.70;;;3.20;;
28762;SDS011;15918;51.270;6.522;2023-05-16T09:38:38;8.07;;;1.83;;
28762;SDS011;15918;51.270;6.522;2023-05-16T09:41:03;6.85;;;2.20;;
28762;SDS011;15918;51.270;6.522;2023-05-16T09:43:29;14.55;;;2.85;;
28762;SDS011;15918;51.270;6.522;2023-05-16T09:45:57;6.78;;;1.88;;
28762;SDS011;15918;51.270;6.522;2023-05-16T09:48:23;7.43;;;2.15;;
28762;SDS011;15918;51.270;6.522;2023-05-16T09:50:52;9.43;;;2.35;;
28762;SDS011;15918;51.270;6.522;2023-05-16T09:53:28;8.75;;;2.33;;
28762;SDS011;15918;51.270;6.522;2023-05-16T09:56:04;8.32;;;2.22;;
28762;SDS011;15918;51.270;6.522;2023-05-16T09:58:38;8.27;;;2.42;;
28762;SDS011;15918;51.270;6.522;2023-05-16T10:01:08;6.53;;;2.00;;
28762;SDS011;15918;51.270;6.522;2023-05-16T10:03:35;8.35;;;2.10;;
28762;SDS011;15918;51.270;6.522;2023-05-16T10:06:03;7.32;;;2.40;;
28762;SDS011;15918;51.270;6.522;2023-05-16T10:08:33;8.23;;;1.85;;
28762;SDS011;15918;51.270;6.522;2023-05-16T10:11:01;11.10;;;2.30;;
28762;SDS011;15918;51.270;6.522;2023-05-16T10:13:34;6.25;;;1.85;;
28762;SDS011;15918;51.270;6.522;2023-05-16T10:16:01;7.25;;;1.63;;
28762;SDS011;15918;51.270;6.522;2023-05-16T10:18:32;5.47;;;2.00;;
28762;SDS011;15918;51.270;6.522;2023-05-16T10:21:05;12.45;;;3.63;;
28762;SDS011;15918;51.270;6.522;2023-05-16T10:23:34;13.30;;;4.03;;
28762;SDS011;15918;51.270;6.522;2023-05-16T10:26:02;9.80;;;3.55;;
28762;SDS011;15918;51.270;6.522;2023-05-16T10:28:29;11.82;;;3.83;;
28762;SDS011;15918;51.270;6.522;2023-05-16T10:30:56;9.05;;;3.50;;
28762;SDS011;15918;51.270;6.522;2023-05-16T10:33:23;8.68;;;3.10;;
28762;SDS011;15918;51.270;6.522;2023-05-16T10:35:48;10.13;;;3.05;;
28762;SDS011;15918;51.270;6.522;2023-05-16T10:38:15;9.52;;;2.83;;
28762;SDS011;15918;51.270;6.522;2023-05-16T10:40:42;7.30;;;2.35;;
28762;SDS011;15918;51.270;6.522;2023-05-16T10:43:09;6.60;;;2.40;;
28762;SDS011;15918;51.270;6.522;2023-05-16T10:45:41;7.57;;;2.45;;
28762;SDS011;15918;51.270;6.522;2023-05-16T10:48:06;6.85;;;1.83;;
28762;SDS011;15918;51.270;6.522;2023-05-16T10:50:40;8.35;;;1.90;;
28762;SDS011;15918;51.270;6.522;2023-05-16T10:53:20;6.28;;;2.13;;
28762;SDS011;15918;51.270;6.522;2023-05-16T10:58:23;7.28;;;1.80;;
28762;SDS011;15918;51.270;6.522;2023-05-16T11:06:26;5.95;;;1.90;;
28762;SDS011;15918;51.270;6.522;2023-05-16T11:08:56;4.53;;;1.80;;
28762;SDS011;15918;51.270;6.522;2023-05-16T11:14:44;5.65;;;1.50;;
28762;SDS011;15918;51.270;6.522;2023-05-16T11:17:13;5.18;;;1.52;;
28762;SDS011;15918;51.270;6.522;2023-05-16T11:22:34;6.53;;;1.83;;
28762;SDS011;15918;51.270;6.522;2023-05-16T11:25:05;5.40;;;1.35;;
28762;SDS011;15918;51.270;6.522;2023-05-16T11:27:33;6.43;;;1.65;;
28762;SDS011;15918;51.270;6.522;2023-05-16T11:30:11;5.80;;;1.88;;
28762;SDS011;15918;51.270;6.522;2023-05-16T11:32:38;4.35;;;1.60;;
28762;SDS011;15918;51.270;6.522;2023-05-16T11:35:06;6.82;;;2.17;;
28762;SDS011;15918;51.270;6.522;2023-05-16T11:37:34;5.97;;;2.33;;
28762;SDS011;15918;51.270;6.522;2023-05-16T11:40:03;6.53;;;2.63;;
28762;SDS011;15918;51.270;6.522;2023-05-16T11:42:36;9.00;;;2.63;;
28762;SDS011;15918;51.270;6.522;2023-05-16T11:45:04;7.35;;;2.22;;
28762;SDS011;15918;51.270;6.522;2023-05-16T11:47:30;8.35;;;2.10;;
28762;SDS011;15918;51.270;6.522;2023-05-16T11:49:56;4.90;;;2.28;;
28762;SDS011;15918;51.270;6.522;2023-05-16T11:52:22;6.65;;;1.85;;
28762;SDS011;15918;51.270;6.522;2023-05-16T11:54:47;6.63;;;2.17;;
28762;SDS011;15918;51.270;6.522;2023-05-16T11:57:14;4.45;;;1.80;;
28762;SDS011;15918;51.270;6.522;2023-05-16T11:59:41;5.13;;;1.67;;
28762;SDS011;15918;51.270;6.522;2023-05-16T12:02:06;7.28;;;1.70;;
28762;SDS011;15918;51.270;6.522;2023-05-16T12:04:33;7.18;;;1.85;;
28762;SDS011;15918;51.270;6.522;2023-05-16T12:07:00;6.07;;;1.83;;
28762;SDS011;15918;51.270;6.522;2023-05-16T12:09:26;7.85;;;2.17;;
28762;SDS011;15918;51.270;6.522;2023-05-16T12:11:52;6.72;;;1.80;;
28762;SDS011;15918;51.270;6.522;2023-05-16T12:14:17;4.85;;;1.50;;
28762;SDS011;15918;51.270;6.522;2023-05-16T12:16:43;6.35;;;2.00;;
28762;SDS011;15918;51.270;6.522;2023-05-16T12:19:10;4.68;;;1.50;;
28762;SDS011;15918;51.270;6.522;2023-05-16T12:21:36;6.13;;;1.48;;
28762;SDS011;15918;51.270;6.522;2023-05-16T12:24:02;4.65;;;1.20;;
28762;SDS011;15918;51.270;6.522;2023-05-16T12:26:29;3.17;;;1.05;;
28762;SDS011;15918;51.270;6.522;2023-05-16T12:28:57;1.92;;;0.95;;
28762;SDS011;15918;51.270;6.522;2023-05-16T12:31:30;3.80;;;1.15;;
28762;SDS011;15918;51.270;6.522;2023-05-16T12:33:59;1.92;;;1.10;;
28762;SDS011;15918;51.270;6.522;2023-05-16T12:36:25;4.93;;;1.40;;
28762;SDS011;15918;51.270;6.522;2023-05-16T12:38:58;4.10;;;1.30;;
28762;SDS011;15918;51.270;6.522;2023-05-16T12:41:25;4.50;;;1.50;;
28762;SDS011;15918;51.270;6.522;2023-05-16T12:43:51;5.22;;;1.42;;
28762;SDS011;15918;51.270;6.522;2023-05-16T12:46:45;6.35;;;1.60;;
28762;SDS011;15918;51.270;6.522;2023-05-16T12:49:13;4.75;;;1.27;;
28762;SDS011;15918;51.270;6.522;2023-05-16T12:51:39;4.78;;;1.50;;
28762;SDS011;15918;51.270;6.522;2023-05-16T12:54:06;4.07;;;1.33;;
28762;SDS011;15918;51.270;6.522;2023-05-16T12:56:36;5.80;;;1.25;;
28762;SDS011;15918;51.270;6.522;2023-05-16T12:59:02;3.40;;;1.20;;
28762;SDS011;15918;51.270;6.522;2023-05-16T13:01:28;5.80;;;1.50;;
28762;SDS011;15918;51.270;6.522;2023-05-16T13:03:54;6.68;;;1.98;;
28762;SDS011;15918;51.270;6.522;2023-05-16T13:06:19;4.68;;;1.27;;
28762;SDS011;15918;51.270;6.522;2023-05-16T13:08:45;4.63;;;1.67;;
28762;SDS011;15918;51.270;6.522;2023-05-16T13:11:11;5.43;;;1.30;;
28762;SDS011;15918;51.270;6.522;2023-05-16T13:13:36;5.20;;;1.50;;
28762;SDS011;15918;51.270;6.522;2023-05-16T13:16:02;5.50;;;1.05;;
28762;SDS011;15918;51.270;6.522;2023-05-16T13:18:28;2.78;;;1.52;;
28762;SDS011;15918;51.270;6.522;2023-05-16T13:20:53;3.50;;;1.33;;
28762;SDS011;15918;51.270;6.522;2023-05-16T13:23:19;5.80;;;1.52;;
28762;SDS011;15918;51.270;6.522;2023-05-16T13:25:45;7.20;;;1.70;;
28762;SDS011;15918;51.270;6.522;2023-05-16T13:28:11;3.05;;;1.35;;
28762;SDS011;15918;51.270;6.522;2023-05-16T13:30:36;5.55;;;1.80;;
28762;SDS011;15918;51.270;6.522;2023-05-16T13:33:02;4.65;;;1.38;;
28762;SDS011;15918;51.270;6.522;2023-05-16T13:35:28;3.30;;;1.33;;
28762;SDS011;15918;51.270;6.522;2023-05-16T13:37:54;3.58;;;1.65;;
28762;SDS011;15918;51.270;6.522;2023-05-16T13:40:19;6.07;;;1.63;;
28762;SDS011;15918;51.270;6.522;2023-05-16T13:42:45;5.57;;;1.40;;
28762;SDS011;15918;51.270;6.522;2023-05-16T13:45:11;6.18;;;2.10;;
28762;SDS011;15918;51.270;6.522;2023-05-16T13:47:36;4.13;;;1.55;;
28762;SDS011;15918;51.270;6.522;2023-05-16T13:50:02;4.43;;;1.58;;
28762;SDS011;15918;51.270;6.522;2023-05-16T13:52:33;6.90;;;1.48;;
28762;SDS011;15918;51.270;6.522;2023-05-16T13:54:58;3.92;;;1.60;;
28762;SDS011;15918;51.270;6.522;2023-05-16T13:57:24;4.40;;;1.70;;
28762;SDS011;15918;51.270;6.522;2023-05-16T13:59:51;5.68;;;1.73;;
28762;SDS011;15918;51.270;6.522;2023-05-16T14:02:17;4.45;;;1.60;;
28762;SDS011;15918;51.270;6.522;2023-05-16T14:04:43;5.95;;;2.03;;
28762;SDS011;15918;51.270;6.522;2023-05-16T14:07:08;4.97;;;2.00;;
28762;SDS011;15918;51.270;6.522;2023-05-16T14:09:34;7.22;;;1.63;;
28762;SDS011;15918;51.270;6.522;2023-05-16T14:12:03;2.70;;;1.45;;
28762;SDS011;15918;51.270;6.522;2023-05-16T14:14:35;4.53;;;1.80;;
28762;SDS011;15918;51.270;6.522;2023-05-16T14:17:01;7.05;;;1.65;;
28762;SDS011;15918;51.270;6.522;2023-05-16T14:19:28;5.88;;;1.65;;
28762;SDS011;15918;51.270;6.522;2023-05-16T14:21:54;3.50;;;1.30;;
28762;SDS011;15918;51.270;6.522;2023-05-16T14:24:20;3.50;;;1.40;;
28762;SDS011;15918;51.270;6.522;2023-05-16T14:26:45;5.50;;;1.65;;
28762;SDS011;15918;51.270;6.522;2023-05-16T14:29:11;7.75;;;2.00;;
28762;SDS011;15918;51.270;6.522;2023-05-16T14:31:37;4.95;;;1.55;;
28762;SDS011;15918;51.270;6.522;2023-05-16T14:34:03;6.85;;;2.35;;
28762;SDS011;15918;51.270;6.522;2023-05-16T14:36:29;5.40;;;2.13;;
28762;SDS011;15918;51.270;6.522;2023-05-16T14:38:55;3.70;;;1.98;;
28762;SDS011;15918;51.270;6.522;2023-05-16T14:41:21;5.68;;;1.73;;
28762;SDS011;15918;51.270;6.522;2023-05-16T14:43:47;5.53;;;1.95;;
28762;SDS011;15918;51.270;6.522;2023-05-16T14:46:13;5.22;;;2.47;;
28762;SDS011;15918;51.270;6.522;2023-05-16T14:48:38;4.82;;;1.98;;
28762;SDS011;15918;51.270;6.522;2023-05-16T14:51:04;4.00;;;2.28;;
28762;SDS011;15918;51.270;6.522;2023-05-16T14:53:30;5.30;;;2.05;;
28762;SDS011;15918;51.270;6.522;2023-05-16T14:55:57;4.43;;;1.95;;
28762;SDS011;15918;51.270;6.522;2023-05-16T14:58:22;6.60;;;1.80;;
28762;SDS011;15918;51.270;6.522;2023-05-16T15:00:48;6.80;;;2.15;;
28762;SDS011;15918;51.270;6.522;2023-05-16T15:03:15;8.13;;;2.38;;
28762;SDS011;15918;51.270;6.522;2023-05-16T15:05:41;4.72;;;2.40;;
28762;SDS011;15918;51.270;6.522;2023-05-16T15:08:08;3.88;;;1.88;;
28762;SDS011;15918;51.270;6.522;2023-05-16T15:10:34;7.47;;;2.25;;
28762;SDS011;15918;51.270;6.522;2023-05-16T15:12:59;6.78;;;2.10;;